Chattaroy, WA (99003)

6:43 PM PDT on August 23, 2016 (GMT -0700)
Mt. Kit Carson | | Change Station

Elev 2887 ft 47.89 °N, 117.19 °W | Updated 13 seconds ago

Clear
Clear
73.8 °F
Feels Like 77 °F
N
0.0
Wind Variable Wind from SSW
Gusts 0.0 mph

Today
High -- | Low -- °F
--% Chance of Precip.
Yesterday
High -- | Low -- °F
Precip. -- in
Pressure 30.09 in
Visibility 10.0 miles
Clouds Clear
Heat Index 77 °F
Dew Point 40 °F
Humidity 29%
Rainfall 0.00 in
Snow Depth Not available.
5:55 AM 7:46 PM
Waning Gibbous, 62% visible
METAR KDEW 240053Z AUTO 25005KT 10SM CLR 25/02 A3011 RMK AO2 SLP190 T02500022
Pressure 30.09 in
Visibility 10.0 miles
Clouds Clear
Heat Index 77 °F
Dew Point 40 °F
Humidity 29%
Rainfall 0.00 in
Snow Depth Not available.
5:55 AM 7:46 PM
Waning Gibbous, 62% visible
METAR KDEW 240053Z AUTO 25005KT 10SM CLR 25/02 A3011 RMK AO2 SLP190 T02500022

10-Day Weather Forecast

Almanac

Astronomy

Aug. 23, 2016 Rise Set
Actual Time
Civil Twilight
Nautical Twilight
Astronomical Twilight
Moon
Length of Visible Light
Length of Day
Tomorrow will be .
, % of the Moon is Illuminated

Today's Extremes

State Highs State Lows

Community

WunderPhotos

Upload Photos

1,934,520 photos uploaded!

WunderBlog® & News

Nearby

Air Quality

  Air Quality AQ Index Pollutant
Not available.

Snow Depth

Station Depth Elevation

Earthquake Activity

City Distance Mag. Time & Date
Minimum magnitude displayed is 2.5.

Coastal Water Temperatures

Place Temperature

Stations

Nearby Weather Stations

Station Location Temp. Windchill Dew Point Humidity Wind Precip. Elev Updated Type
                   

Watches & Warnings

There are currently no watches in effect.